createdAt,value
2018-12-07T00:00:21.129Z,9.50
2018-12-07T00:02:49.818Z,9.50
2018-12-07T00:05:18.560Z,9.50
2018-12-07T00:07:47.255Z,9.50
2018-12-07T00:10:15.953Z,9.60
2018-12-07T00:12:44.637Z,9.60
2018-12-07T00:15:13.304Z,9.70
2018-12-07T00:17:42.058Z,9.70
2018-12-07T00:20:10.760Z,9.70
2018-12-07T00:22:39.449Z,9.80
2018-12-07T00:25:08.460Z,9.80
2018-12-07T00:27:37.171Z,9.80
2018-12-07T00:30:05.877Z,9.80
2018-12-07T00:32:34.597Z,9.90
2018-12-07T00:35:03.310Z,9.90
2018-12-07T00:37:32.036Z,9.90
2018-12-07T00:40:00.715Z,10.00
2018-12-07T00:42:29.387Z,9.90
2018-12-07T00:44:58.060Z,9.90
2018-12-07T00:47:26.772Z,9.90
2018-12-07T00:49:55.447Z,10.00
2018-12-07T00:52:24.193Z,10.00
2018-12-07T00:54:52.914Z,10.00
2018-12-07T00:57:21.598Z,10.00
2018-12-07T00:59:50.351Z,10.10
2018-12-07T01:02:19.063Z,10.10
2018-12-07T01:04:47.761Z,10.10
2018-12-07T01:07:16.496Z,10.10
2018-12-07T01:09:45.205Z,10.10
2018-12-07T01:12:13.950Z,10.10
2018-12-07T01:14:42.656Z,10.10
2018-12-07T01:17:11.382Z,10.20
2018-12-07T01:19:40.067Z,10.20
2018-12-07T01:22:08.806Z,10.20
2018-12-07T01:24:37.525Z,10.20
2018-12-07T01:27:06.266Z,10.20
2018-12-07T01:29:34.976Z,10.30
2018-12-07T01:32:03.685Z,10.30
2018-12-07T01:34:32.861Z,10.20
2018-12-07T01:37:01.602Z,10.30
2018-12-07T01:39:30.311Z,10.30
2018-12-07T01:41:58.990Z,10.30
2018-12-07T01:44:27.709Z,10.40
2018-12-07T01:46:56.451Z,10.40
2018-12-07T01:49:25.154Z,10.40
2018-12-07T01:51:53.889Z,10.50
2018-12-07T01:54:22.691Z,10.40
2018-12-07T01:56:51.608Z,10.40
2018-12-07T01:59:20.408Z,10.40
2018-12-07T02:01:49.127Z,10.30
2018-12-07T02:04:17.811Z,10.20
2018-12-07T02:06:46.536Z,10.10
2018-12-07T02:09:15.254Z,10.10
2018-12-07T02:11:43.953Z,10.10
2018-12-07T02:14:12.739Z,10.00
2018-12-07T02:16:41.453Z,10.10
2018-12-07T02:19:10.176Z,10.10
2018-12-07T02:21:38.860Z,10.10
2018-12-07T02:24:07.626Z,10.10
2018-12-07T02:26:36.304Z,10.20
2018-12-07T02:29:05.070Z,10.20
2018-12-07T02:31:33.857Z,10.20
2018-12-07T02:34:02.654Z,10.20
2018-12-07T02:36:31.386Z,10.20
2018-12-07T02:39:00.077Z,10.30
2018-12-07T02:41:28.777Z,10.30
2018-12-07T02:43:57.592Z,10.30
2018-12-07T02:46:26.805Z,10.30
2018-12-07T02:48:55.530Z,10.20
2018-12-07T02:51:24.265Z,10.30
2018-12-07T02:53:52.941Z,10.30
2018-12-07T02:56:21.682Z,10.30
2018-12-07T02:58:50.413Z,10.20
2018-12-07T03:01:19.110Z,10.20
2018-12-07T03:03:47.836Z,10.10
2018-12-07T03:06:16.831Z,10.00
2018-12-07T03:08:45.520Z,10.00
2018-12-07T03:11:14.253Z,10.00
2018-12-07T03:13:43.087Z,10.00
2018-12-07T03:16:11.833Z,9.90
2018-12-07T03:18:40.520Z,9.90
2018-12-07T03:21:09.192Z,9.90
2018-12-07T03:23:37.865Z,9.90
2018-12-07T03:26:06.593Z,9.90
2018-12-07T03:28:35.316Z,9.90
2018-12-07T03:31:04.066Z,9.90
2018-12-07T03:33:32.863Z,9.90
2018-12-07T03:36:01.627Z,9.90
2018-12-07T03:38:30.317Z,9.90
2018-12-07T03:40:59.080Z,9.90
2018-12-07T03:43:27.816Z,9.90
2018-12-07T03:45:56.492Z,9.90
2018-12-07T03:48:25.215Z,9.80
2018-12-07T03:50:54.160Z,9.90
2018-12-07T03:53:22.844Z,9.90
2018-12-07T03:55:51.543Z,9.90
2018-12-07T03:58:20.314Z,9.80
2018-12-07T04:00:49.069Z,9.90
2018-12-07T04:03:17.852Z,9.90
2018-12-07T04:05:46.526Z,9.90
2018-12-07T04:08:15.205Z,10.00
2018-12-07T04:10:43.921Z,9.90
2018-12-07T04:13:12.588Z,9.90
2018-12-07T04:15:41.293Z,9.90
2018-12-07T04:18:10.004Z,9.90
2018-12-07T04:20:38.738Z,10.00
2018-12-07T04:23:07.468Z,10.00
2018-12-07T04:25:36.194Z,10.00
2018-12-07T04:28:04.907Z,10.00
2018-12-07T04:30:33.607Z,10.00
2018-12-07T04:33:02.305Z,10.00
2018-12-07T04:35:31.022Z,10.00
2018-12-07T04:37:59.780Z,10.10
2018-12-07T04:40:28.630Z,10.10
2018-12-07T04:42:57.453Z,10.10
2018-12-07T04:45:26.132Z,10.10
2018-12-07T04:47:55.315Z,10.10
2018-12-07T04:50:24.058Z,10.10
2018-12-07T04:52:52.867Z,10.10
2018-12-07T04:55:21.553Z,10.10
2018-12-07T04:57:50.304Z,10.10
2018-12-07T05:00:19.035Z,10.10
2018-12-07T05:02:47.792Z,10.10
2018-12-07T05:05:16.612Z,10.10
2018-12-07T05:07:45.390Z,10.10
2018-12-07T05:10:14.346Z,10.10
2018-12-07T05:12:43.054Z,10.10
2018-12-07T05:15:11.792Z,10.10
2018-12-07T05:17:40.509Z,10.10
2018-12-07T05:20:09.216Z,10.10
2018-12-07T05:22:37.907Z,10.10
2018-12-07T05:25:06.608Z,10.10
2018-12-07T05:27:35.337Z,10.10
2018-12-07T05:30:05.090Z,10.10
2018-12-07T05:32:33.799Z,10.10
2018-12-07T05:35:02.547Z,10.10
2018-12-07T05:37:31.297Z,10.10
2018-12-07T05:39:59.974Z,10.10
2018-12-07T05:42:28.718Z,10.10
2018-12-07T05:44:57.436Z,10.10
2018-12-07T05:47:26.131Z,10.20
2018-12-07T05:49:54.861Z,10.20
2018-12-07T05:52:23.572Z,10.20
2018-12-07T05:54:52.297Z,10.20
2018-12-07T05:57:21.007Z,10.20
2018-12-07T05:59:49.754Z,10.20
2018-12-07T06:02:18.451Z,10.20
2018-12-07T06:04:47.165Z,10.20
2018-12-07T06:07:15.874Z,10.30
2018-12-07T06:09:44.562Z,10.20
2018-12-07T06:12:13.257Z,10.20
2018-12-07T06:14:41.960Z,10.30
2018-12-07T06:17:10.699Z,10.30
2018-12-07T06:19:39.456Z,10.30
2018-12-07T06:22:08.227Z,10.30
2018-12-07T06:24:36.939Z,10.30
2018-12-07T06:27:05.650Z,10.30
2018-12-07T06:29:34.397Z,10.30
2018-12-07T06:32:03.109Z,10.30
2018-12-07T06:34:31.793Z,10.30
2018-12-07T06:37:00.517Z,10.30
2018-12-07T06:39:29.236Z,10.30
2018-12-07T06:41:57.936Z,10.40
2018-12-07T06:44:26.851Z,10.30
2018-12-07T06:46:55.565Z,10.40
2018-12-07T06:49:24.235Z,10.40
2018-12-07T06:51:53.013Z,10.40
2018-12-07T06:54:21.749Z,10.40
2018-12-07T06:56:50.479Z,10.40
2018-12-07T06:59:19.231Z,10.40
2018-12-07T07:01:47.948Z,10.40
2018-12-07T07:04:16.715Z,10.40
2018-12-07T07:06:45.385Z,10.40
2018-12-07T07:09:14.070Z,10.40
2018-12-07T07:11:42.809Z,10.50
2018-12-07T07:14:11.581Z,10.40
2018-12-07T07:16:40.272Z,10.40
2018-12-07T07:19:08.996Z,10.50
2018-12-07T07:21:37.684Z,10.50
2018-12-07T07:24:06.364Z,10.50
2018-12-07T07:26:35.122Z,10.50
2018-12-07T07:29:03.849Z,10.50
2018-12-07T07:31:32.672Z,10.50
2018-12-07T07:34:01.348Z,10.50
2018-12-07T07:36:30.065Z,10.50
2018-12-07T07:38:58.746Z,10.50
2018-12-07T07:41:27.462Z,10.60
2018-12-07T07:43:56.157Z,10.60
2018-12-07T07:46:24.844Z,10.60
2018-12-07T07:48:53.627Z,10.60
2018-12-07T07:51:22.528Z,10.60
2018-12-07T07:53:51.212Z,10.60
2018-12-07T07:56:19.912Z,10.70
2018-12-07T07:58:48.669Z,10.70
2018-12-07T08:01:17.368Z,10.70
2018-12-07T08:03:46.041Z,10.70
2018-12-07T08:06:14.696Z,10.70
2018-12-07T08:08:43.397Z,10.70
2018-12-07T08:11:12.161Z,10.70
2018-12-07T08:13:40.871Z,10.70
2018-12-07T08:16:09.613Z,10.70
2018-12-07T08:18:38.298Z,10.80
2018-12-07T08:21:07.143Z,10.80
2018-12-07T08:23:35.898Z,10.80
2018-12-07T08:26:04.642Z,10.80
2018-12-07T08:28:33.373Z,10.90
2018-12-07T08:31:02.160Z,10.90
2018-12-07T08:33:30.961Z,10.90
2018-12-07T08:35:59.705Z,11.00
2018-12-07T08:38:28.412Z,11.00
2018-12-07T08:40:57.149Z,11.10
2018-12-07T08:43:25.839Z,11.10
2018-12-07T08:45:54.542Z,11.10
2018-12-07T08:48:23.253Z,11.10
2018-12-07T08:50:52.004Z,11.10
2018-12-07T08:53:20.723Z,11.20
2018-12-07T08:55:49.446Z,11.20
2018-12-07T08:58:18.202Z,11.30
2018-12-07T09:00:47.139Z,11.30
2018-12-07T09:03:15.853Z,11.30
2018-12-07T09:05:44.531Z,11.30
2018-12-07T09:08:15.449Z,11.40
2018-12-07T09:10:43.966Z,11.40
2018-12-07T09:13:12.674Z,11.40
2018-12-07T09:15:41.387Z,11.40
2018-12-07T09:18:10.087Z,11.40
2018-12-07T09:20:38.809Z,11.50
2018-12-07T09:23:07.527Z,11.50
2018-12-07T09:25:36.255Z,11.50
2018-12-07T09:28:04.933Z,11.50
2018-12-07T09:30:33.658Z,11.60
2018-12-07T09:33:02.370Z,11.50
2018-12-07T09:35:31.111Z,11.60
2018-12-07T09:37:59.789Z,11.60
2018-12-07T09:40:28.741Z,11.60
2018-12-07T09:42:57.465Z,11.60
2018-12-07T09:45:26.339Z,11.60
2018-12-07T09:47:55.038Z,11.60
2018-12-07T09:50:23.765Z,11.60
2018-12-07T09:52:52.445Z,11.60
2018-12-07T09:55:21.170Z,11.60
2018-12-07T09:57:49.962Z,11.60
2018-12-07T10:00:18.688Z,11.60
2018-12-07T10:02:47.522Z,11.60
2018-12-07T10:05:16.270Z,11.70
2018-12-07T10:07:44.969Z,11.70
2018-12-07T10:10:13.760Z,11.70
2018-12-07T10:12:42.482Z,11.70
2018-12-07T10:15:11.191Z,11.70
2018-12-07T10:17:39.935Z,11.80
2018-12-07T10:20:08.885Z,11.80
2018-12-07T10:22:37.974Z,11.80
2018-12-07T10:25:06.948Z,11.90
2018-12-07T10:27:35.671Z,11.90
2018-12-07T10:30:05.372Z,12.00
2018-12-07T10:32:34.072Z,12.00
2018-12-07T10:35:02.802Z,12.10
2018-12-07T10:37:31.585Z,12.10
2018-12-07T10:40:00.309Z,12.10
2018-12-07T10:42:29.021Z,12.20
2018-12-07T10:44:57.770Z,12.20
2018-12-07T10:47:26.608Z,12.20
2018-12-07T10:49:55.267Z,12.20
2018-12-07T10:52:23.944Z,12.20
2018-12-07T10:54:52.656Z,12.20
2018-12-07T10:57:21.351Z,12.20
2018-12-07T10:59:50.089Z,12.20
2018-12-07T11:02:24.313Z,12.30
2018-12-07T11:04:58.480Z,12.30
2018-12-07T11:07:32.756Z,12.30
2018-12-07T11:10:07.055Z,12.40
2018-12-07T11:15:51.180Z,12.40
2018-12-07T11:18:25.947Z,12.50
2018-12-07T11:21:00.460Z,12.50
2018-12-07T11:26:48.508Z,12.60
2018-12-07T11:29:22.723Z,12.70
2018-12-07T11:31:56.815Z,12.70
2018-12-07T11:34:26.764Z,12.70
2018-12-07T11:36:55.445Z,12.70
2018-12-07T11:39:24.155Z,12.70
2018-12-07T11:41:52.875Z,12.60
2018-12-07T11:44:21.589Z,12.60
2018-12-07T11:46:50.318Z,12.60
2018-12-07T11:49:20.764Z,12.50
2018-12-07T11:51:49.573Z,12.50
2018-12-07T11:54:18.354Z,12.40
2018-12-07T11:56:47.053Z,12.40
2018-12-07T11:59:15.822Z,12.30
2018-12-07T12:01:45.110Z,12.30
2018-12-07T12:04:14.861Z,12.30
2018-12-07T12:06:43.626Z,12.20
2018-12-07T12:09:12.354Z,12.20
2018-12-07T12:11:41.092Z,12.20
2018-12-07T12:14:09.832Z,12.10
2018-12-07T12:16:38.567Z,12.10
2018-12-07T12:19:07.236Z,12.00
2018-12-07T12:21:36.627Z,11.90
2018-12-07T12:24:05.362Z,11.90
2018-12-07T12:26:34.073Z,11.80
2018-12-07T12:29:02.787Z,11.80
2018-12-07T12:31:31.461Z,11.80
2018-12-07T12:34:00.186Z,11.80
2018-12-07T12:36:28.876Z,11.80
2018-12-07T12:38:57.592Z,11.70
2018-12-07T12:41:26.301Z,11.70
2018-12-07T12:43:55.059Z,11.70
2018-12-07T12:46:23.764Z,11.70
2018-12-07T12:48:52.492Z,11.70
2018-12-07T12:51:21.227Z,11.70
2018-12-07T12:53:49.989Z,11.60
2018-12-07T12:56:18.894Z,11.60
2018-12-07T12:58:47.662Z,11.60
2018-12-07T13:01:16.625Z,11.60
2018-12-07T13:03:45.322Z,11.60
2018-12-07T13:06:14.029Z,11.60
2018-12-07T13:08:42.729Z,11.60
2018-12-07T13:11:11.444Z,11.60
2018-12-07T13:13:40.149Z,11.50
2018-12-07T13:16:08.883Z,11.50
2018-12-07T13:18:37.624Z,11.50
2018-12-07T13:21:06.325Z,11.50
2018-12-07T13:23:35.037Z,11.50
2018-12-07T13:26:03.754Z,11.50
2018-12-07T13:28:32.513Z,11.50
2018-12-07T13:31:01.267Z,11.40
2018-12-07T13:33:29.978Z,11.40
2018-12-07T13:35:58.680Z,11.40
2018-12-07T13:38:27.421Z,11.40
2018-12-07T13:40:56.633Z,11.40
2018-12-07T13:43:25.561Z,11.40
2018-12-07T13:45:54.553Z,11.40
2018-12-07T13:48:23.729Z,11.40
2018-12-07T13:50:53.053Z,11.30
2018-12-07T13:53:22.403Z,11.30
2018-12-07T13:55:51.726Z,11.40
2018-12-07T13:58:20.891Z,11.30
2018-12-07T14:00:49.912Z,11.30
2018-12-07T14:03:18.772Z,11.30
2018-12-07T14:05:47.771Z,11.30
2018-12-07T14:08:16.807Z,11.30
2018-12-07T14:10:45.795Z,11.30
2018-12-07T14:13:14.908Z,11.20
2018-12-07T14:15:44.603Z,11.20
2018-12-07T14:18:13.318Z,11.20
2018-12-07T14:20:42.066Z,11.20
2018-12-07T14:23:11.057Z,11.20
2018-12-07T14:25:40.348Z,11.20
2018-12-07T14:28:09.449Z,11.20
2018-12-07T14:30:38.497Z,11.20
2018-12-07T14:33:07.612Z,11.30
2018-12-07T14:35:36.753Z,11.30
2018-12-07T14:38:05.738Z,11.20
2018-12-07T14:40:34.737Z,11.20
2018-12-07T14:43:03.631Z,11.20
2018-12-07T14:45:32.637Z,11.20
2018-12-07T14:48:01.833Z,11.10
2018-12-07T14:50:30.867Z,11.00
2018-12-07T14:52:59.963Z,11.00
2018-12-07T14:55:29.251Z,11.00
2018-12-07T14:57:58.387Z,11.00
2018-12-07T15:00:27.390Z,10.90
2018-12-07T15:02:56.333Z,10.90
2018-12-07T15:05:25.137Z,10.90
2018-12-07T15:07:53.924Z,10.90
2018-12-07T15:10:22.860Z,10.90
2018-12-07T15:12:52.218Z,10.80
2018-12-07T15:15:21.226Z,10.90
2018-12-07T15:17:50.281Z,10.80
2018-12-07T15:20:19.479Z,10.80
2018-12-07T15:22:48.501Z,10.80
2018-12-07T15:25:17.548Z,10.80
2018-12-07T15:27:46.725Z,10.70
2018-12-07T15:30:15.769Z,10.80
2018-12-07T15:32:44.784Z,10.70
2018-12-07T15:35:13.496Z,10.70
2018-12-07T15:37:42.607Z,10.70
2018-12-07T15:40:11.869Z,10.70
2018-12-07T15:42:41.057Z,10.70
2018-12-07T15:45:10.173Z,10.70
2018-12-07T15:47:39.332Z,10.70
2018-12-07T15:50:08.445Z,10.70
2018-12-07T15:52:37.456Z,10.70
2018-12-07T15:55:06.845Z,10.70
2018-12-07T15:57:35.933Z,10.70
2018-12-07T16:00:06.241Z,10.70
2018-12-07T16:02:35.242Z,10.70
2018-12-07T16:05:04.537Z,10.70
2018-12-07T16:07:33.464Z,10.70
2018-12-07T16:10:02.606Z,10.70
2018-12-07T16:12:31.644Z,10.70
2018-12-07T16:15:00.622Z,10.70
2018-12-07T16:17:29.637Z,10.70
2018-12-07T16:19:58.780Z,10.70
2018-12-07T16:22:27.827Z,10.70
2018-12-07T16:24:56.830Z,10.70
2018-12-07T16:27:25.773Z,10.70
2018-12-07T16:29:55.020Z,10.70
2018-12-07T16:32:24.155Z,10.70
2018-12-07T16:34:53.207Z,10.70
2018-12-07T16:37:22.093Z,10.70
2018-12-07T16:39:50.886Z,10.70
2018-12-07T16:42:20.035Z,10.70
2018-12-07T16:44:48.941Z,10.70
2018-12-07T16:47:17.632Z,10.70
2018-12-07T16:49:53.522Z,10.70
2018-12-07T16:52:26.582Z,10.70
2018-12-07T16:54:58.987Z,10.70
2018-12-07T17:00:24.432Z,10.70
2018-12-07T17:02:53.160Z,10.80
2018-12-07T17:05:22.188Z,10.70
2018-12-07T17:07:51.199Z,10.70
2018-12-07T17:10:19.980Z,10.70
2018-12-07T17:12:49.011Z,10.70
2018-12-07T17:15:18.131Z,10.70
2018-12-07T17:17:47.125Z,10.70
2018-12-07T17:20:15.834Z,10.70
2018-12-07T17:22:44.866Z,10.70
2018-12-07T17:25:13.657Z,10.80
2018-12-07T17:27:42.817Z,10.80
2018-12-07T17:30:12.049Z,10.80
2018-12-07T17:32:40.995Z,10.80
2018-12-07T17:35:09.928Z,10.80
2018-12-07T17:37:38.733Z,10.70
2018-12-07T17:40:07.787Z,10.70
2018-12-07T17:42:37.033Z,10.70
2018-12-07T17:45:06.606Z,10.60
2018-12-07T17:47:35.585Z,10.60
2018-12-07T17:50:06.189Z,10.50
2018-12-07T17:52:35.153Z,10.50
2018-12-07T17:55:04.056Z,10.50
2018-12-07T17:57:32.786Z,10.50
2018-12-07T18:00:01.599Z,10.50
2018-12-07T18:02:30.730Z,10.50
2018-12-07T18:04:59.639Z,10.40
2018-12-07T18:07:29.034Z,10.40
2018-12-07T18:09:58.273Z,10.40
2018-12-07T18:12:27.682Z,10.40
2018-12-07T18:14:56.724Z,10.40
2018-12-07T18:17:25.987Z,10.40
2018-12-07T18:19:54.953Z,10.40
2018-12-07T18:22:23.630Z,10.40
2018-12-07T18:24:52.503Z,10.30
2018-12-07T18:27:21.873Z,10.30
2018-12-07T18:29:51.044Z,10.30
2018-12-07T18:32:20.176Z,10.30
2018-12-07T18:34:49.259Z,10.30
2018-12-07T18:37:18.717Z,10.30
2018-12-07T18:39:47.689Z,10.30
2018-12-07T18:42:16.456Z,10.30
2018-12-07T18:44:45.764Z,10.30
2018-12-07T18:47:14.872Z,10.30
2018-12-07T18:49:44.050Z,10.30
2018-12-07T18:52:13.211Z,10.30
2018-12-07T18:54:42.194Z,10.20
2018-12-07T18:57:11.441Z,10.20
2018-12-07T18:59:40.505Z,10.30
2018-12-07T19:02:10.202Z,10.20
2018-12-07T19:04:39.280Z,10.20
2018-12-07T19:07:08.505Z,10.20
2018-12-07T19:09:37.800Z,10.20
2018-12-07T19:12:07.043Z,10.20
2018-12-07T19:14:36.308Z,10.20
2018-12-07T19:17:05.416Z,10.20
2018-12-07T19:19:34.540Z,10.20
2018-12-07T19:22:03.612Z,10.20
2018-12-07T19:24:32.396Z,10.20
2018-12-07T19:27:01.599Z,10.20
2018-12-07T19:29:30.747Z,10.20
2018-12-07T19:31:59.953Z,10.20
2018-12-07T19:34:29.319Z,10.20
2018-12-07T19:36:59.234Z,10.10
2018-12-07T19:39:28.223Z,10.10
2018-12-07T19:41:57.279Z,10.10
2018-12-07T19:44:26.365Z,10.10
2018-12-07T19:46:55.427Z,10.10
2018-12-07T19:49:24.442Z,10.10
2018-12-07T19:51:53.585Z,10.10
2018-12-07T19:54:22.509Z,10.10
2018-12-07T19:56:51.378Z,10.10
2018-12-07T19:59:20.564Z,10.10
2018-12-07T20:01:49.505Z,10.10
2018-12-07T20:04:18.467Z,10.00
2018-12-07T20:06:47.394Z,10.00
2018-12-07T20:09:16.921Z,10.00
2018-12-07T20:11:46.040Z,10.00
2018-12-07T20:14:15.042Z,10.00
2018-12-07T20:16:44.126Z,10.00
2018-12-07T20:19:13.509Z,10.00
2018-12-07T20:21:42.601Z,10.00
2018-12-07T20:24:11.633Z,10.00
2018-12-07T20:26:41.458Z,10.00
2018-12-07T20:29:10.481Z,10.00
2018-12-07T20:31:39.771Z,9.90
2018-12-07T20:34:08.679Z,9.90
2018-12-07T20:36:37.413Z,10.00
2018-12-07T20:39:07.720Z,9.90
2018-12-07T20:41:36.692Z,9.90
2018-12-07T20:44:05.787Z,9.90
2018-12-07T20:46:34.883Z,9.90
2018-12-07T20:49:03.932Z,9.90
2018-12-07T20:51:33.155Z,9.90
2018-12-07T20:54:03.199Z,9.90
2018-12-07T20:56:32.164Z,9.80
2018-12-07T20:59:01.116Z,9.80
2018-12-07T21:01:30.764Z,9.80
2018-12-07T21:04:21.379Z,9.80
2018-12-07T21:07:03.696Z,9.80
2018-12-07T21:09:32.755Z,9.70
2018-12-07T21:12:05.103Z,9.70
2018-12-07T21:14:34.214Z,9.60
2018-12-07T21:17:15.291Z,9.70
2018-12-07T21:19:48.859Z,9.70
2018-12-07T21:22:17.855Z,9.70
2018-12-07T21:24:46.805Z,9.70
2018-12-07T21:27:16.528Z,9.70
2018-12-07T21:29:49.058Z,9.70
2018-12-07T21:32:18.652Z,9.70
2018-12-07T21:35:05.410Z,9.70
2018-12-07T21:37:34.345Z,9.80
2018-12-07T21:40:09.918Z,9.70
2018-12-07T21:42:39.073Z,9.80
2018-12-07T21:45:08.097Z,9.80
2018-12-07T21:47:56.358Z,9.80
2018-12-07T21:50:25.388Z,9.80
2018-12-07T21:52:54.476Z,9.90
2018-12-07T21:55:23.662Z,9.80
2018-12-07T21:57:52.997Z,9.80
2018-12-07T22:00:22.246Z,9.70
2018-12-07T22:02:50.957Z,9.70
2018-12-07T22:05:20.730Z,9.70
2018-12-07T22:07:49.697Z,9.70
2018-12-07T22:10:18.474Z,9.60
2018-12-07T22:12:47.719Z,9.60
2018-12-07T22:15:16.752Z,9.70
2018-12-07T22:17:45.924Z,9.60
2018-12-07T22:20:14.955Z,9.70
2018-12-07T22:22:44.286Z,9.70
2018-12-07T22:25:13.320Z,9.70
2018-12-07T22:27:42.447Z,9.70
2018-12-07T22:30:11.784Z,9.60
2018-12-07T22:32:40.948Z,9.70
2018-12-07T22:35:10.496Z,9.70
2018-12-07T22:37:39.938Z,9.70
2018-12-07T22:40:08.943Z,9.70
2018-12-07T22:42:38.155Z,9.70
2018-12-07T22:45:07.201Z,9.70
2018-12-07T22:47:36.185Z,9.80
2018-12-07T22:50:05.551Z,9.80
2018-12-07T22:52:34.299Z,9.80
2018-12-07T22:55:02.961Z,9.70
2018-12-07T22:57:31.670Z,9.70
2018-12-07T23:00:00.362Z,9.70
2018-12-07T23:02:29.066Z,9.70
2018-12-07T23:04:57.790Z,9.80
2018-12-07T23:07:26.643Z,9.70
2018-12-07T23:09:55.333Z,9.80
2018-12-07T23:12:30.860Z,9.80
2018-12-07T23:14:59.563Z,9.80
2018-12-07T23:17:28.262Z,9.70
2018-12-07T23:19:56.919Z,9.80
2018-12-07T23:22:25.646Z,9.70
2018-12-07T23:24:54.330Z,9.70
2018-12-07T23:27:23.143Z,9.70
2018-12-07T23:29:51.811Z,9.70
2018-12-07T23:32:20.513Z,9.70
2018-12-07T23:34:49.200Z,9.70
2018-12-07T23:37:17.922Z,9.70
2018-12-07T23:39:47.525Z,9.70
2018-12-07T23:42:16.176Z,9.60
2018-12-07T23:44:44.919Z,9.60
2018-12-07T23:47:13.572Z,9.50
2018-12-07T23:49:42.255Z,9.50
2018-12-07T23:52:10.973Z,9.50
2018-12-07T23:54:39.657Z,9.50
2018-12-07T23:57:08.318Z,9.50
2018-12-07T23:59:37.058Z,9.60
